sensor_id;sensor_type;location;lat;lon;timestamp;P1;durP1;ratioP1;P2;durP2;ratioP2
62709;SDS011;48770;51.624;5.886;2024-03-08T00:00:51;13.85;;;9.52;;
62709;SDS011;48770;51.624;5.886;2024-03-08T00:03:17;14.38;;;9.13;;
62709;SDS011;48770;51.624;5.886;2024-03-08T00:05:42;13.57;;;9.18;;
62709;SDS011;48770;51.624;5.886;2024-03-08T00:08:07;17.58;;;9.43;;
62709;SDS011;48770;51.624;5.886;2024-03-08T00:10:35;14.32;;;8.60;;
62709;SDS011;48770;51.624;5.886;2024-03-08T00:13:00;13.88;;;9.20;;
62709;SDS011;48770;51.624;5.886;2024-03-08T00:15:26;16.58;;;8.60;;
62709;SDS011;48770;51.624;5.886;2024-03-08T00:17:54;13.88;;;8.38;;
62709;SDS011;48770;51.624;5.886;2024-03-08T00:20:20;13.23;;;8.95;;
62709;SDS011;48770;51.624;5.886;2024-03-08T00:22:45;12.90;;;8.52;;
62709;SDS011;48770;51.624;5.886;2024-03-08T00:25:11;15.15;;;9.55;;
62709;SDS011;48770;51.624;5.886;2024-03-08T00:27:39;16.08;;;9.27;;
62709;SDS011;48770;51.624;5.886;2024-03-08T00:30:06;12.68;;;8.68;;
62709;SDS011;48770;51.624;5.886;2024-03-08T00:32:32;14.75;;;9.05;;
62709;SDS011;48770;51.624;5.886;2024-03-08T00:34:57;16.73;;;9.32;;
62709;SDS011;48770;51.624;5.886;2024-03-08T00:37:23;12.93;;;8.77;;
62709;SDS011;48770;51.624;5.886;2024-03-08T00:39:49;14.30;;;8.95;;
62709;SDS011;48770;51.624;5.886;2024-03-08T00:42:15;13.68;;;8.07;;
62709;SDS011;48770;51.624;5.886;2024-03-08T00:44:43;14.52;;;9.73;;
62709;SDS011;48770;51.624;5.886;2024-03-08T00:47:09;15.02;;;8.95;;
62709;SDS011;48770;51.624;5.886;2024-03-08T00:49:35;12.80;;;9.27;;
62709;SDS011;48770;51.624;5.886;2024-03-08T00:52:01;13.40;;;8.63;;
62709;SDS011;48770;51.624;5.886;2024-03-08T00:54:27;16.50;;;9.02;;
62709;SDS011;48770;51.624;5.886;2024-03-08T00:56:52;12.18;;;7.97;;
62709;SDS011;48770;51.624;5.886;2024-03-08T00:59:18;14.32;;;9.00;;
62709;SDS011;48770;51.624;5.886;2024-03-08T01:01:43;13.68;;;9.30;;
62709;SDS011;48770;51.624;5.886;2024-03-08T01:04:09;11.57;;;8.48;;
62709;SDS011;48770;51.624;5.886;2024-03-08T01:06:35;14.90;;;8.50;;
62709;SDS011;48770;51.624;5.886;2024-03-08T01:09:00;18.33;;;8.98;;
62709;SDS011;48770;51.624;5.886;2024-03-08T01:11:26;13.32;;;8.88;;
62709;SDS011;48770;51.624;5.886;2024-03-08T01:13:53;13.02;;;8.82;;
62709;SDS011;48770;51.624;5.886;2024-03-08T01:16:18;12.50;;;9.00;;
62709;SDS011;48770;51.624;5.886;2024-03-08T01:18:45;15.40;;;8.98;;
62709;SDS011;48770;51.624;5.886;2024-03-08T01:21:11;12.57;;;8.73;;
62709;SDS011;48770;51.624;5.886;2024-03-08T01:23:37;12.55;;;8.13;;
62709;SDS011;48770;51.624;5.886;2024-03-08T01:26:02;12.90;;;8.75;;
62709;SDS011;48770;51.624;5.886;2024-03-08T01:28:28;11.80;;;8.65;;
62709;SDS011;48770;51.624;5.886;2024-03-08T01:30:53;14.73;;;9.05;;
62709;SDS011;48770;51.624;5.886;2024-03-08T01:33:25;14.70;;;8.90;;
62709;SDS011;48770;51.624;5.886;2024-03-08T01:35:51;12.75;;;8.45;;
62709;SDS011;48770;51.624;5.886;2024-03-08T01:38:17;12.77;;;8.70;;
62709;SDS011;48770;51.624;5.886;2024-03-08T01:40:43;12.80;;;8.32;;
62709;SDS011;48770;51.624;5.886;2024-03-08T01:45:52;13.13;;;8.60;;
62709;SDS011;48770;51.624;5.886;2024-03-08T01:48:18;12.90;;;8.77;;
62709;SDS011;48770;51.624;5.886;2024-03-08T01:50:44;14.50;;;8.70;;
62709;SDS011;48770;51.624;5.886;2024-03-08T01:53:10;12.15;;;8.05;;
62709;SDS011;48770;51.624;5.886;2024-03-08T01:55:40;14.18;;;8.80;;
62709;SDS011;48770;51.624;5.886;2024-03-08T01:58:07;11.43;;;8.20;;
62709;SDS011;48770;51.624;5.886;2024-03-08T02:00:35;11.35;;;7.93;;
62709;SDS011;48770;51.624;5.886;2024-03-08T02:03:01;12.80;;;8.25;;
62709;SDS011;48770;51.624;5.886;2024-03-08T02:05:27;11.82;;;8.35;;
62709;SDS011;48770;51.624;5.886;2024-03-08T02:07:53;11.95;;;8.48;;
62709;SDS011;48770;51.624;5.886;2024-03-08T02:10:19;11.75;;;8.43;;
62709;SDS011;48770;51.624;5.886;2024-03-08T02:12:44;11.95;;;8.27;;
62709;SDS011;48770;51.624;5.886;2024-03-08T02:15:11;14.43;;;9.23;;
62709;SDS011;48770;51.624;5.886;2024-03-08T02:17:37;12.27;;;9.13;;
62709;SDS011;48770;51.624;5.886;2024-03-08T02:20:02;12.93;;;8.35;;
62709;SDS011;48770;51.624;5.886;2024-03-08T02:22:29;14.50;;;8.68;;
62709;SDS011;48770;51.624;5.886;2024-03-08T02:24:56;13.73;;;9.27;;
62709;SDS011;48770;51.624;5.886;2024-03-08T02:27:23;11.63;;;8.27;;
62709;SDS011;48770;51.624;5.886;2024-03-08T02:29:50;11.88;;;8.55;;
62709;SDS011;48770;51.624;5.886;2024-03-08T02:32:20;14.45;;;10.07;;
62709;SDS011;48770;51.624;5.886;2024-03-08T02:34:46;13.40;;;9.68;;
62709;SDS011;48770;51.624;5.886;2024-03-08T02:37:11;13.75;;;8.90;;
62709;SDS011;48770;51.624;5.886;2024-03-08T02:39:37;15.68;;;8.95;;
62709;SDS011;48770;51.624;5.886;2024-03-08T02:42:03;13.23;;;9.20;;
62709;SDS011;48770;51.624;5.886;2024-03-08T02:44:28;14.20;;;9.35;;
62709;SDS011;48770;51.624;5.886;2024-03-08T02:46:54;12.73;;;9.15;;
62709;SDS011;48770;51.624;5.886;2024-03-08T02:49:20;12.77;;;9.57;;
62709;SDS011;48770;51.624;5.886;2024-03-08T02:51:46;13.77;;;9.32;;
62709;SDS011;48770;51.624;5.886;2024-03-08T02:54:11;13.57;;;8.98;;
62709;SDS011;48770;51.624;5.886;2024-03-08T02:56:36;11.68;;;8.77;;
62709;SDS011;48770;51.624;5.886;2024-03-08T02:59:02;13.40;;;9.45;;
62709;SDS011;48770;51.624;5.886;2024-03-08T03:01:27;12.82;;;9.05;;
62709;SDS011;48770;51.624;5.886;2024-03-08T03:03:53;11.82;;;9.02;;
62709;SDS011;48770;51.624;5.886;2024-03-08T03:06:18;14.20;;;9.48;;
62709;SDS011;48770;51.624;5.886;2024-03-08T03:08:46;14.35;;;10.18;;
62709;SDS011;48770;51.624;5.886;2024-03-08T03:11:11;15.80;;;9.90;;
62709;SDS011;48770;51.624;5.886;2024-03-08T03:13:38;13.57;;;9.15;;
62709;SDS011;48770;51.624;5.886;2024-03-08T03:16:04;14.95;;;9.80;;
62709;SDS011;48770;51.624;5.886;2024-03-08T03:18:30;13.25;;;9.73;;
62709;SDS011;48770;51.624;5.886;2024-03-08T03:20:57;11.50;;;9.65;;
62709;SDS011;48770;51.624;5.886;2024-03-08T03:23:23;13.23;;;9.73;;
62709;SDS011;48770;51.624;5.886;2024-03-08T03:25:48;13.13;;;9.70;;
62709;SDS011;48770;51.624;5.886;2024-03-08T03:28:14;15.82;;;9.73;;
62709;SDS011;48770;51.624;5.886;2024-03-08T03:30:44;14.73;;;9.60;;
62709;SDS011;48770;51.624;5.886;2024-03-08T03:33:11;14.50;;;10.30;;
62709;SDS011;48770;51.624;5.886;2024-03-08T03:35:37;14.02;;;10.90;;
62709;SDS011;48770;51.624;5.886;2024-03-08T03:38:03;14.10;;;9.93;;
62709;SDS011;48770;51.624;5.886;2024-03-08T03:40:32;13.60;;;10.35;;
62709;SDS011;48770;51.624;5.886;2024-03-08T03:43:01;15.68;;;10.07;;
62709;SDS011;48770;51.624;5.886;2024-03-08T03:45:28;13.90;;;10.00;;
62709;SDS011;48770;51.624;5.886;2024-03-08T03:47:53;18.75;;;9.88;;
62709;SDS011;48770;51.624;5.886;2024-03-08T03:50:19;14.52;;;9.70;;
62709;SDS011;48770;51.624;5.886;2024-03-08T03:52:48;14.48;;;10.70;;
62709;SDS011;48770;51.624;5.886;2024-03-08T03:55:13;14.30;;;10.85;;
62709;SDS011;48770;51.624;5.886;2024-03-08T03:57:40;17.70;;;10.25;;
62709;SDS011;48770;51.624;5.886;2024-03-08T04:00:06;15.00;;;9.80;;
62709;SDS011;48770;51.624;5.886;2024-03-08T04:02:35;15.35;;;10.23;;
62709;SDS011;48770;51.624;5.886;2024-03-08T04:05:07;13.48;;;10.10;;
62709;SDS011;48770;51.624;5.886;2024-03-08T04:07:33;16.38;;;10.82;;
62709;SDS011;48770;51.624;5.886;2024-03-08T04:09:59;14.82;;;10.57;;
62709;SDS011;48770;51.624;5.886;2024-03-08T04:12:26;14.90;;;10.38;;
62709;SDS011;48770;51.624;5.886;2024-03-08T04:14:51;14.65;;;11.05;;
62709;SDS011;48770;51.624;5.886;2024-03-08T04:17:16;15.40;;;11.27;;
62709;SDS011;48770;51.624;5.886;2024-03-08T04:19:43;15.15;;;11.13;;
62709;SDS011;48770;51.624;5.886;2024-03-08T04:22:08;14.30;;;10.65;;
62709;SDS011;48770;51.624;5.886;2024-03-08T04:24:34;15.27;;;10.48;;
62709;SDS011;48770;51.624;5.886;2024-03-08T04:26:59;15.02;;;10.15;;
62709;SDS011;48770;51.624;5.886;2024-03-08T04:29:25;16.33;;;11.55;;
62709;SDS011;48770;51.624;5.886;2024-03-08T04:31:50;15.35;;;11.18;;
62709;SDS011;48770;51.624;5.886;2024-03-08T04:34:19;18.23;;;11.43;;
62709;SDS011;48770;51.624;5.886;2024-03-08T04:36:48;15.30;;;11.00;;
62709;SDS011;48770;51.624;5.886;2024-03-08T04:39:13;15.38;;;11.13;;
62709;SDS011;48770;51.624;5.886;2024-03-08T04:41:40;16.27;;;11.32;;
62709;SDS011;48770;51.624;5.886;2024-03-08T04:44:07;14.23;;;10.70;;
62709;SDS011;48770;51.624;5.886;2024-03-08T04:46:33;13.70;;;10.73;;
62709;SDS011;48770;51.624;5.886;2024-03-08T04:49:00;15.77;;;11.23;;
62709;SDS011;48770;51.624;5.886;2024-03-08T04:51:25;16.27;;;11.40;;
62709;SDS011;48770;51.624;5.886;2024-03-08T04:53:51;16.98;;;10.48;;
62709;SDS011;48770;51.624;5.886;2024-03-08T04:56:16;15.35;;;11.63;;
62709;SDS011;48770;51.624;5.886;2024-03-08T04:58:44;16.25;;;10.98;;
62709;SDS011;48770;51.624;5.886;2024-03-08T05:01:11;15.48;;;10.18;;
62709;SDS011;48770;51.624;5.886;2024-03-08T05:03:37;15.57;;;11.30;;
62709;SDS011;48770;51.624;5.886;2024-03-08T05:06:03;14.80;;;11.27;;
62709;SDS011;48770;51.624;5.886;2024-03-08T05:08:29;16.92;;;10.70;;
62709;SDS011;48770;51.624;5.886;2024-03-08T05:10:54;14.75;;;11.00;;
62709;SDS011;48770;51.624;5.886;2024-03-08T05:13:20;18.50;;;11.90;;
62709;SDS011;48770;51.624;5.886;2024-03-08T05:15:48;15.60;;;11.32;;
62709;SDS011;48770;51.624;5.886;2024-03-08T05:18:15;15.20;;;11.43;;
62709;SDS011;48770;51.624;5.886;2024-03-08T05:20:40;15.52;;;11.88;;
62709;SDS011;48770;51.624;5.886;2024-03-08T05:23:06;15.82;;;11.27;;
62709;SDS011;48770;51.624;5.886;2024-03-08T05:25:31;15.27;;;11.05;;
62709;SDS011;48770;51.624;5.886;2024-03-08T05:27:57;16.35;;;10.90;;
62709;SDS011;48770;51.624;5.886;2024-03-08T05:30:23;15.98;;;11.32;;
62709;SDS011;48770;51.624;5.886;2024-03-08T05:32:48;15.45;;;11.85;;
62709;SDS011;48770;51.624;5.886;2024-03-08T05:35:13;15.73;;;11.93;;
62709;SDS011;48770;51.624;5.886;2024-03-08T05:37:41;16.55;;;11.60;;
62709;SDS011;48770;51.624;5.886;2024-03-08T05:40:07;13.85;;;11.07;;
62709;SDS011;48770;51.624;5.886;2024-03-08T05:42:37;18.63;;;12.10;;
62709;SDS011;48770;51.624;5.886;2024-03-08T05:45:03;19.02;;;11.82;;
62709;SDS011;48770;51.624;5.886;2024-03-08T05:47:31;14.85;;;10.77;;
62709;SDS011;48770;51.624;5.886;2024-03-08T05:49:57;14.80;;;11.65;;
62709;SDS011;48770;51.624;5.886;2024-03-08T05:52:23;18.48;;;12.10;;
62709;SDS011;48770;51.624;5.886;2024-03-08T05:54:48;18.25;;;12.15;;
62709;SDS011;48770;51.624;5.886;2024-03-08T05:57:13;15.40;;;11.50;;
62709;SDS011;48770;51.624;5.886;2024-03-08T05:59:39;17.60;;;11.23;;
62709;SDS011;48770;51.624;5.886;2024-03-08T06:02:05;19.05;;;11.85;;
62709;SDS011;48770;51.624;5.886;2024-03-08T06:04:30;16.33;;;11.50;;
62709;SDS011;48770;51.624;5.886;2024-03-08T06:06:56;18.50;;;11.60;;
62709;SDS011;48770;51.624;5.886;2024-03-08T06:09:23;15.45;;;11.13;;
62709;SDS011;48770;51.624;5.886;2024-03-08T06:11:49;17.63;;;12.35;;
62709;SDS011;48770;51.624;5.886;2024-03-08T06:14:15;17.33;;;11.75;;
62709;SDS011;48770;51.624;5.886;2024-03-08T06:16:44;16.73;;;12.10;;
62709;SDS011;48770;51.624;5.886;2024-03-08T06:19:15;16.30;;;11.73;;
62709;SDS011;48770;51.624;5.886;2024-03-08T06:21:40;18.63;;;12.27;;
62709;SDS011;48770;51.624;5.886;2024-03-08T06:24:06;18.42;;;12.45;;
62709;SDS011;48770;51.624;5.886;2024-03-08T06:26:31;15.30;;;12.02;;
62709;SDS011;48770;51.624;5.886;2024-03-08T06:28:57;16.35;;;11.95;;
62709;SDS011;48770;51.624;5.886;2024-03-08T06:31:22;15.95;;;11.57;;
62709;SDS011;48770;51.624;5.886;2024-03-08T06:33:48;16.35;;;11.70;;
62709;SDS011;48770;51.624;5.886;2024-03-08T06:36:19;15.27;;;11.55;;
62709;SDS011;48770;51.624;5.886;2024-03-08T06:38:46;16.90;;;11.90;;
62709;SDS011;48770;51.624;5.886;2024-03-08T06:41:12;17.17;;;12.15;;
62709;SDS011;48770;51.624;5.886;2024-03-08T06:43:40;16.10;;;12.38;;
62709;SDS011;48770;51.624;5.886;2024-03-08T06:46:06;17.52;;;12.90;;
62709;SDS011;48770;51.624;5.886;2024-03-08T06:48:31;19.55;;;12.30;;
62709;SDS011;48770;51.624;5.886;2024-03-08T06:50:57;15.27;;;11.43;;
62709;SDS011;48770;51.624;5.886;2024-03-08T06:53:22;17.17;;;11.98;;
62709;SDS011;48770;51.624;5.886;2024-03-08T06:55:47;14.88;;;11.60;;
62709;SDS011;48770;51.624;5.886;2024-03-08T06:58:13;17.15;;;12.43;;
62709;SDS011;48770;51.624;5.886;2024-03-08T07:00:38;16.98;;;11.43;;
62709;SDS011;48770;51.624;5.886;2024-03-08T07:03:06;16.55;;;11.73;;
62709;SDS011;48770;51.624;5.886;2024-03-08T07:05:32;14.98;;;11.35;;
62709;SDS011;48770;51.624;5.886;2024-03-08T07:07:58;16.63;;;12.27;;
62709;SDS011;48770;51.624;5.886;2024-03-08T07:10:23;15.65;;;11.35;;
62709;SDS011;48770;51.624;5.886;2024-03-08T07:12:53;16.25;;;12.18;;
62709;SDS011;48770;51.624;5.886;2024-03-08T07:15:19;15.77;;;11.27;;
62709;SDS011;48770;51.624;5.886;2024-03-08T07:17:47;15.85;;;11.27;;
62709;SDS011;48770;51.624;5.886;2024-03-08T07:20:13;16.00;;;11.63;;
62709;SDS011;48770;51.624;5.886;2024-03-08T07:22:40;16.63;;;11.75;;
62709;SDS011;48770;51.624;5.886;2024-03-08T07:25:06;17.48;;;12.23;;
62709;SDS011;48770;51.624;5.886;2024-03-08T07:27:56;16.63;;;12.02;;
62709;SDS011;48770;51.624;5.886;2024-03-08T07:30:22;15.35;;;11.27;;
62709;SDS011;48770;51.624;5.886;2024-03-08T07:33:07;14.82;;;11.05;;
62709;SDS011;48770;51.624;5.886;2024-03-08T07:35:36;15.07;;;11.38;;
62709;SDS011;48770;51.624;5.886;2024-03-08T07:38:05;17.20;;;11.52;;
62709;SDS011;48770;51.624;5.886;2024-03-08T07:40:37;15.75;;;10.98;;
62709;SDS011;48770;51.624;5.886;2024-03-08T07:43:08;15.38;;;10.73;;
62709;SDS011;48770;51.624;5.886;2024-03-08T07:45:35;14.95;;;11.25;;
62709;SDS011;48770;51.624;5.886;2024-03-08T07:48:01;16.33;;;11.48;;
62709;SDS011;48770;51.624;5.886;2024-03-08T07:50:27;15.15;;;11.00;;
62709;SDS011;48770;51.624;5.886;2024-03-08T07:52:53;17.85;;;11.07;;
62709;SDS011;48770;51.624;5.886;2024-03-08T07:55:19;19.42;;;11.77;;
62709;SDS011;48770;51.624;5.886;2024-03-08T07:57:45;16.15;;;11.65;;
62709;SDS011;48770;51.624;5.886;2024-03-08T08:00:12;16.55;;;11.32;;
62709;SDS011;48770;51.624;5.886;2024-03-08T08:02:42;15.63;;;10.88;;
62709;SDS011;48770;51.624;5.886;2024-03-08T08:05:08;14.57;;;10.77;;
62709;SDS011;48770;51.624;5.886;2024-03-08T08:07:35;16.67;;;10.93;;
62709;SDS011;48770;51.624;5.886;2024-03-08T08:10:01;15.70;;;10.95;;
62709;SDS011;48770;51.624;5.886;2024-03-08T08:12:26;16.95;;;11.05;;
62709;SDS011;48770;51.624;5.886;2024-03-08T08:14:54;13.75;;;9.60;;
62709;SDS011;48770;51.624;5.886;2024-03-08T08:17:19;15.57;;;10.38;;
62709;SDS011;48770;51.624;5.886;2024-03-08T08:19:45;15.63;;;10.40;;
62709;SDS011;48770;51.624;5.886;2024-03-08T08:22:11;15.05;;;10.63;;
62709;SDS011;48770;51.624;5.886;2024-03-08T08:24:36;14.80;;;11.30;;
62709;SDS011;48770;51.624;5.886;2024-03-08T08:27:02;14.15;;;10.55;;
62709;SDS011;48770;51.624;5.886;2024-03-08T08:29:27;16.42;;;10.50;;
62709;SDS011;48770;51.624;5.886;2024-03-08T08:31:53;15.07;;;10.52;;
62709;SDS011;48770;51.624;5.886;2024-03-08T08:34:19;14.23;;;9.88;;
62709;SDS011;48770;51.624;5.886;2024-03-08T08:36:44;14.98;;;10.55;;
62709;SDS011;48770;51.624;5.886;2024-03-08T08:39:10;16.10;;;10.63;;
62709;SDS011;48770;51.624;5.886;2024-03-08T08:41:38;15.68;;;10.57;;
62709;SDS011;48770;51.624;5.886;2024-03-08T08:44:04;19.58;;;10.48;;
62709;SDS011;48770;51.624;5.886;2024-03-08T08:46:29;15.63;;;10.45;;
62709;SDS011;48770;51.624;5.886;2024-03-08T08:48:54;14.30;;;10.15;;
62709;SDS011;48770;51.624;5.886;2024-03-08T08:51:20;15.05;;;10.75;;
62709;SDS011;48770;51.624;5.886;2024-03-08T08:53:45;15.18;;;10.05;;
62709;SDS011;48770;51.624;5.886;2024-03-08T08:56:12;16.35;;;10.15;;
62709;SDS011;48770;51.624;5.886;2024-03-08T08:58:39;15.30;;;10.70;;
62709;SDS011;48770;51.624;5.886;2024-03-08T09:01:07;15.20;;;10.38;;
62709;SDS011;48770;51.624;5.886;2024-03-08T09:03:33;15.30;;;10.60;;
62709;SDS011;48770;51.624;5.886;2024-03-08T09:06:00;16.55;;;9.95;;
62709;SDS011;48770;51.624;5.886;2024-03-08T09:08:25;15.52;;;9.98;;
62709;SDS011;48770;51.624;5.886;2024-03-08T09:10:51;16.40;;;10.48;;
62709;SDS011;48770;51.624;5.886;2024-03-08T09:13:16;15.95;;;10.07;;
62709;SDS011;48770;51.624;5.886;2024-03-08T09:15:41;12.40;;;9.45;;
62709;SDS011;48770;51.624;5.886;2024-03-08T09:18:07;12.38;;;9.43;;
62709;SDS011;48770;51.624;5.886;2024-03-08T09:20:34;15.45;;;9.13;;
62709;SDS011;48770;51.624;5.886;2024-03-08T09:22:59;15.07;;;10.18;;
62709;SDS011;48770;51.624;5.886;2024-03-08T09:25:25;14.45;;;9.60;;
62709;SDS011;48770;51.624;5.886;2024-03-08T09:27:51;12.60;;;9.65;;
62709;SDS011;48770;51.624;5.886;2024-03-08T09:30:16;13.30;;;9.30;;
62709;SDS011;48770;51.624;5.886;2024-03-08T09:32:43;15.52;;;9.95;;
62709;SDS011;48770;51.624;5.886;2024-03-08T09:35:08;13.20;;;9.30;;
62709;SDS011;48770;51.624;5.886;2024-03-08T09:37:34;12.02;;;9.02;;
62709;SDS011;48770;51.624;5.886;2024-03-08T09:40:00;14.70;;;9.65;;
62709;SDS011;48770;51.624;5.886;2024-03-08T09:42:29;13.27;;;9.13;;
62709;SDS011;48770;51.624;5.886;2024-03-08T09:44:55;11.93;;;9.00;;
62709;SDS011;48770;51.624;5.886;2024-03-08T09:47:20;13.63;;;9.50;;
62709;SDS011;48770;51.624;5.886;2024-03-08T09:49:49;11.65;;;9.10;;
62709;SDS011;48770;51.624;5.886;2024-03-08T09:52:15;11.85;;;8.88;;
62709;SDS011;48770;51.624;5.886;2024-03-08T09:54:40;13.82;;;9.13;;
62709;SDS011;48770;51.624;5.886;2024-03-08T09:57:09;12.90;;;9.15;;
62709;SDS011;48770;51.624;5.886;2024-03-08T09:59:35;14.13;;;9.80;;
62709;SDS011;48770;51.624;5.886;2024-03-08T10:02:00;11.80;;;9.32;;
62709;SDS011;48770;51.624;5.886;2024-03-08T10:04:27;13.43;;;9.23;;
62709;SDS011;48770;51.624;5.886;2024-03-08T10:06:55;13.05;;;8.80;;
62709;SDS011;48770;51.624;5.886;2024-03-08T10:09:24;16.70;;;9.63;;
62709;SDS011;48770;51.624;5.886;2024-03-08T10:11:53;12.32;;;8.73;;
62709;SDS011;48770;51.624;5.886;2024-03-08T10:14:21;13.27;;;9.93;;
62709;SDS011;48770;51.624;5.886;2024-03-08T10:16:46;13.32;;;9.15;;
62709;SDS011;48770;51.624;5.886;2024-03-08T10:19:11;14.43;;;8.95;;
62709;SDS011;48770;51.624;5.886;2024-03-08T10:21:47;14.43;;;9.18;;
62709;SDS011;48770;51.624;5.886;2024-03-08T10:24:18;10.60;;;8.35;;
62709;SDS011;48770;51.624;5.886;2024-03-08T10:26:43;12.18;;;8.80;;
62709;SDS011;48770;51.624;5.886;2024-03-08T10:29:09;12.25;;;7.97;;
62709;SDS011;48770;51.624;5.886;2024-03-08T10:31:35;11.85;;;8.07;;
62709;SDS011;48770;51.624;5.886;2024-03-08T10:34:01;10.73;;;8.25;;
62709;SDS011;48770;51.624;5.886;2024-03-08T10:36:27;12.13;;;8.85;;
62709;SDS011;48770;51.624;5.886;2024-03-08T10:38:53;11.80;;;7.70;;
62709;SDS011;48770;51.624;5.886;2024-03-08T10:41:21;12.52;;;8.57;;
62709;SDS011;48770;51.624;5.886;2024-03-08T10:46:59;12.13;;;8.27;;
62709;SDS011;48770;51.624;5.886;2024-03-08T10:52:35;12.23;;;8.48;;
62709;SDS011;48770;51.624;5.886;2024-03-08T10:55:02;11.95;;;8.35;;
62709;SDS011;48770;51.624;5.886;2024-03-08T10:57:28;11.65;;;7.47;;
62709;SDS011;48770;51.624;5.886;2024-03-08T10:59:54;9.02;;;7.18;;
62709;SDS011;48770;51.624;5.886;2024-03-08T11:02:20;12.57;;;8.48;;
62709;SDS011;48770;51.624;5.886;2024-03-08T11:04:46;13.73;;;7.93;;
62709;SDS011;48770;51.624;5.886;2024-03-08T11:07:14;11.27;;;8.32;;
62709;SDS011;48770;51.624;5.886;2024-03-08T11:09:42;11.25;;;7.63;;
62709;SDS011;48770;51.624;5.886;2024-03-08T11:12:23;12.07;;;7.85;;
62709;SDS011;48770;51.624;5.886;2024-03-08T11:15:01;11.20;;;7.70;;
62709;SDS011;48770;51.624;5.886;2024-03-08T11:20:11;11.73;;;7.65;;
62709;SDS011;48770;51.624;5.886;2024-03-08T11:22:40;9.65;;;7.35;;
62709;SDS011;48770;51.624;5.886;2024-03-08T11:25:10;13.45;;;8.02;;
62709;SDS011;48770;51.624;5.886;2024-03-08T11:28:12;10.43;;;7.75;;
62709;SDS011;48770;51.624;5.886;2024-03-08T11:30:42;10.02;;;6.43;;
62709;SDS011;48770;51.624;5.886;2024-03-08T11:33:12;10.32;;;7.05;;
62709;SDS011;48770;51.624;5.886;2024-03-08T11:35:38;10.57;;;6.82;;
62709;SDS011;48770;51.624;5.886;2024-03-08T11:38:07;13.48;;;7.25;;
62709;SDS011;48770;51.624;5.886;2024-03-08T11:40:34;8.52;;;6.80;;
62709;SDS011;48770;51.624;5.886;2024-03-08T11:43:00;11.27;;;6.88;;
62709;SDS011;48770;51.624;5.886;2024-03-08T11:45:28;9.77;;;7.43;;
62709;SDS011;48770;51.624;5.886;2024-03-08T11:47:53;9.27;;;6.72;;
62709;SDS011;48770;51.624;5.886;2024-03-08T11:50:19;9.48;;;7.18;;
62709;SDS011;48770;51.624;5.886;2024-03-08T11:52:48;10.65;;;7.43;;
62709;SDS011;48770;51.624;5.886;2024-03-08T11:55:14;10.45;;;7.15;;
62709;SDS011;48770;51.624;5.886;2024-03-08T11:57:39;11.27;;;6.68;;
62709;SDS011;48770;51.624;5.886;2024-03-08T12:00:08;8.57;;;6.45;;
62709;SDS011;48770;51.624;5.886;2024-03-08T12:02:46;8.80;;;6.68;;
62709;SDS011;48770;51.624;5.886;2024-03-08T12:05:15;8.98;;;6.63;;
62709;SDS011;48770;51.624;5.886;2024-03-08T12:07:41;10.77;;;6.82;;
62709;SDS011;48770;51.624;5.886;2024-03-08T12:10:14;12.60;;;7.13;;
62709;SDS011;48770;51.624;5.886;2024-03-08T12:12:44;15.07;;;7.45;;
62709;SDS011;48770;51.624;5.886;2024-03-08T12:15:15;9.57;;;6.43;;
62709;SDS011;48770;51.624;5.886;2024-03-08T12:17:42;11.13;;;7.43;;
62709;SDS011;48770;51.624;5.886;2024-03-08T12:20:13;8.45;;;6.50;;
62709;SDS011;48770;51.624;5.886;2024-03-08T12:22:41;11.60;;;6.63;;
62709;SDS011;48770;51.624;5.886;2024-03-08T12:25:07;12.55;;;6.60;;
62709;SDS011;48770;51.624;5.886;2024-03-08T12:27:35;10.02;;;7.20;;
62709;SDS011;48770;51.624;5.886;2024-03-08T12:30:21;8.13;;;6.55;;
62709;SDS011;48770;51.624;5.886;2024-03-08T12:32:58;8.18;;;6.15;;
62709;SDS011;48770;51.624;5.886;2024-03-08T12:35:25;8.63;;;7.07;;
62709;SDS011;48770;51.624;5.886;2024-03-08T12:37:52;11.30;;;6.63;;
62709;SDS011;48770;51.624;5.886;2024-03-08T12:40:19;9.55;;;6.53;;
62709;SDS011;48770;51.624;5.886;2024-03-08T12:43:05;11.75;;;6.72;;
62709;SDS011;48770;51.624;5.886;2024-03-08T12:45:31;9.48;;;6.03;;
62709;SDS011;48770;51.624;5.886;2024-03-08T12:47:57;8.63;;;6.05;;
62709;SDS011;48770;51.624;5.886;2024-03-08T12:50:24;10.05;;;6.55;;
62709;SDS011;48770;51.624;5.886;2024-03-08T12:52:50;8.65;;;6.32;;
62709;SDS011;48770;51.624;5.886;2024-03-08T12:55:17;8.75;;;6.53;;
62709;SDS011;48770;51.624;5.886;2024-03-08T12:57:43;9.88;;;6.38;;
62709;SDS011;48770;51.624;5.886;2024-03-08T13:00:09;10.88;;;6.18;;
62709;SDS011;48770;51.624;5.886;2024-03-08T13:02:40;8.35;;;6.35;;
62709;SDS011;48770;51.624;5.886;2024-03-08T13:05:05;8.80;;;6.53;;
62709;SDS011;48770;51.624;5.886;2024-03-08T13:07:31;8.90;;;6.18;;
62709;SDS011;48770;51.624;5.886;2024-03-08T13:09:56;9.77;;;6.20;;
62709;SDS011;48770;51.624;5.886;2024-03-08T13:12:24;9.75;;;5.80;;
62709;SDS011;48770;51.624;5.886;2024-03-08T13:14:50;8.50;;;6.05;;
62709;SDS011;48770;51.624;5.886;2024-03-08T13:17:16;8.10;;;6.13;;
62709;SDS011;48770;51.624;5.886;2024-03-08T13:19:43;8.75;;;6.13;;
62709;SDS011;48770;51.624;5.886;2024-03-08T13:22:09;8.07;;;5.90;;
62709;SDS011;48770;51.624;5.886;2024-03-08T13:24:41;6.70;;;5.50;;
62709;SDS011;48770;51.624;5.886;2024-03-08T13:27:07;7.57;;;5.78;;
62709;SDS011;48770;51.624;5.886;2024-03-08T13:29:44;7.93;;;6.03;;
62709;SDS011;48770;51.624;5.886;2024-03-08T13:32:11;9.85;;;5.97;;
62709;SDS011;48770;51.624;5.886;2024-03-08T13:34:37;8.20;;;6.10;;
62709;SDS011;48770;51.624;5.886;2024-03-08T13:37:05;6.95;;;5.70;;
62709;SDS011;48770;51.624;5.886;2024-03-08T13:39:34;8.57;;;5.85;;
62709;SDS011;48770;51.624;5.886;2024-03-08T13:42:12;8.55;;;6.28;;
62709;SDS011;48770;51.624;5.886;2024-03-08T13:44:45;7.97;;;6.00;;
62709;SDS011;48770;51.624;5.886;2024-03-08T13:47:12;9.63;;;6.25;;
62709;SDS011;48770;51.624;5.886;2024-03-08T13:49:44;11.15;;;6.90;;
62709;SDS011;48770;51.624;5.886;2024-03-08T13:52:13;8.80;;;6.32;;
62709;SDS011;48770;51.624;5.886;2024-03-08T13:54:42;7.68;;;6.13;;
62709;SDS011;48770;51.624;5.886;2024-03-08T13:59:44;7.95;;;5.78;;
62709;SDS011;48770;51.624;5.886;2024-03-08T14:02:12;8.38;;;5.97;;
62709;SDS011;48770;51.624;5.886;2024-03-08T14:04:41;7.20;;;5.28;;
62709;SDS011;48770;51.624;5.886;2024-03-08T14:07:12;8.13;;;6.40;;
62709;SDS011;48770;51.624;5.886;2024-03-08T14:09:43;6.55;;;5.32;;
62709;SDS011;48770;51.624;5.886;2024-03-08T14:12:14;8.27;;;6.03;;
62709;SDS011;48770;51.624;5.886;2024-03-08T14:14:44;8.10;;;5.75;;
62709;SDS011;48770;51.624;5.886;2024-03-08T14:17:10;7.47;;;6.20;;
62709;SDS011;48770;51.624;5.886;2024-03-08T14:19:41;10.02;;;6.10;;
62709;SDS011;48770;51.624;5.886;2024-03-08T14:22:09;8.20;;;5.85;;
62709;SDS011;48770;51.624;5.886;2024-03-08T14:24:40;7.22;;;5.68;;
62709;SDS011;48770;51.624;5.886;2024-03-08T14:27:08;7.78;;;5.85;;
62709;SDS011;48770;51.624;5.886;2024-03-08T14:29:38;8.60;;;5.85;;
62709;SDS011;48770;51.624;5.886;2024-03-08T14:32:23;7.30;;;5.93;;
62709;SDS011;48770;51.624;5.886;2024-03-08T14:34:49;6.68;;;5.40;;
62709;SDS011;48770;51.624;5.886;2024-03-08T14:37:15;6.95;;;5.78;;
62709;SDS011;48770;51.624;5.886;2024-03-08T14:39:53;6.82;;;5.45;;
62709;SDS011;48770;51.624;5.886;2024-03-08T14:42:19;8.70;;;6.05;;
62709;SDS011;48770;51.624;5.886;2024-03-08T14:44:47;9.23;;;5.82;;